createdAt,value
2022-11-22T00:03:35.640Z,34.38
2022-11-22T00:06:16.202Z,33.67
2022-11-22T00:09:00.788Z,35.15
2022-11-22T00:11:55.131Z,35.05
2022-11-22T00:14:48.995Z,34.78
2022-11-22T00:17:31.026Z,32.08
2022-11-22T00:20:19.105Z,22.58
2022-11-22T00:23:09.774Z,33.00
2022-11-22T00:25:51.914Z,32.10
2022-11-22T00:28:36.558Z,32.17
2022-11-22T00:31:25.436Z,31.50
2022-11-22T00:34:15.393Z,30.05
2022-11-22T00:37:09.967Z,30.25
2022-11-22T00:39:53.882Z,29.52
2022-11-22T00:42:39.295Z,29.23
2022-11-22T00:45:20.512Z,30.27
2022-11-22T00:48:09.504Z,30.98
2022-11-22T00:50:59.741Z,29.25
2022-11-22T00:53:43.660Z,30.58
2022-11-22T00:56:32.930Z,29.60
2022-11-22T00:59:09.091Z,28.30
2022-11-22T01:01:56.655Z,27.88
2022-11-22T01:04:47.275Z,30.27
2022-11-22T01:07:29.732Z,27.60
2022-11-22T01:10:12.916Z,29.60
2022-11-22T01:12:53.760Z,23.70
2022-11-22T01:15:42.728Z,32.78
2022-11-22T01:18:27.923Z,36.90
2022-11-22T01:21:11.212Z,35.10
2022-11-22T01:23:53.902Z,33.42
2022-11-22T01:26:35.868Z,34.67
2022-11-22T01:29:24.886Z,36.50
2022-11-22T01:32:10.940Z,36.58
2022-11-22T01:34:57.152Z,35.75
2022-11-22T01:37:46.078Z,35.65
2022-11-22T01:40:40.658Z,34.40
2022-11-22T01:43:36.046Z,37.88
2022-11-22T01:46:37.025Z,32.70
2022-11-22T01:49:30.196Z,33.38
2022-11-22T01:52:12.063Z,31.00
2022-11-22T01:55:01.802Z,31.92
2022-11-22T01:57:47.221Z,31.67
2022-11-22T02:00:25.324Z,34.03
2022-11-22T02:03:13.625Z,35.92
2022-11-22T02:06:01.097Z,32.30
2022-11-22T02:08:52.846Z,31.73
2022-11-22T02:11:35.850Z,33.40
2022-11-22T02:14:24.149Z,30.20
2022-11-22T02:17:18.000Z,33.47
2022-11-22T02:20:01.728Z,32.40
2022-11-22T02:23:30.554Z,33.13
2022-11-22T02:26:13.934Z,32.47
2022-11-22T02:29:05.849Z,33.90
2022-11-22T02:31:48.198Z,35.72
2022-11-22T02:34:32.551Z,36.13
2022-11-22T02:37:11.996Z,35.70
2022-11-22T02:39:51.932Z,36.00
2022-11-22T02:42:37.618Z,33.58
2022-11-22T02:45:21.454Z,38.67
2022-11-22T02:48:19.961Z,37.30
2022-11-22T02:51:05.996Z,37.83
2022-11-22T02:53:47.089Z,38.90
2022-11-22T02:56:30.844Z,37.75
2022-11-22T02:59:14.252Z,38.90
2022-11-22T03:01:54.865Z,38.78
2022-11-22T03:04:38.975Z,40.10
2022-11-22T03:07:36.389Z,38.22
2022-11-22T03:10:14.438Z,41.10
2022-11-22T03:13:00.030Z,42.92
2022-11-22T03:15:45.681Z,42.50
2022-11-22T03:18:29.447Z,39.22
2022-11-22T03:21:18.723Z,42.40
2022-11-22T03:24:00.054Z,41.42
2022-11-22T03:26:41.912Z,36.78
2022-11-22T03:29:22.907Z,39.60
2022-11-22T03:32:10.106Z,37.03
2022-11-22T03:34:48.956Z,37.15
2022-11-22T03:37:36.065Z,37.65
2022-11-22T03:40:14.896Z,36.28
2022-11-22T03:42:53.521Z,34.88
2022-11-22T03:45:44.084Z,36.72
2022-11-22T03:48:31.886Z,32.97
2022-11-22T03:51:13.904Z,34.30
2022-11-22T03:53:56.636Z,35.55
2022-11-22T03:56:44.684Z,34.08
2022-11-22T03:59:37.084Z,32.25
2022-11-22T04:02:24.339Z,29.98
2022-11-22T04:05:12.497Z,30.67
2022-11-22T04:07:52.149Z,31.30
2022-11-22T04:10:38.992Z,29.63
2022-11-22T04:13:51.551Z,30.95
2022-11-22T04:16:40.681Z,27.65
2022-11-22T04:19:28.300Z,28.83
2022-11-22T04:22:17.177Z,26.92
2022-11-22T04:25:14.069Z,27.55
2022-11-22T04:28:06.851Z,25.80
2022-11-22T04:31:07.234Z,26.27
2022-11-22T04:33:54.155Z,26.80
2022-11-22T04:36:40.190Z,26.20
2022-11-22T04:39:27.424Z,24.83
2022-11-22T04:42:25.316Z,23.58
2022-11-22T04:45:14.034Z,23.75
2022-11-22T04:48:04.781Z,25.77
2022-11-22T04:50:59.741Z,24.05
2022-11-22T04:53:55.203Z,24.48
2022-11-22T04:56:51.181Z,24.85
2022-11-22T04:59:32.345Z,26.25
2022-11-22T05:02:13.882Z,25.42
2022-11-22T05:04:59.872Z,27.30
2022-11-22T05:07:54.627Z,23.23
2022-11-22T05:10:50.324Z,24.52
2022-11-22T05:13:28.525Z,26.38
2022-11-22T05:16:13.801Z,26.92
2022-11-22T05:19:11.794Z,23.13
2022-11-22T05:21:50.322Z,26.80
2022-11-22T05:24:26.029Z,26.60
2022-11-22T05:27:04.730Z,25.70
2022-11-22T05:29:45.897Z,26.38
2022-11-22T05:32:27.948Z,24.75
2022-11-22T05:35:08.151Z,26.30
2022-11-22T05:37:46.715Z,26.63
2022-11-22T05:40:32.562Z,28.42
2022-11-22T05:43:17.682Z,26.10
2022-11-22T05:46:04.469Z,26.25
2022-11-22T05:48:53.106Z,26.65
2022-11-22T05:51:35.001Z,26.55
2022-11-22T05:54:18.818Z,27.48
2022-11-22T05:56:55.906Z,27.00
2022-11-22T05:59:31.316Z,28.83
2022-11-22T06:02:09.970Z,31.50
2022-11-22T06:05:01.665Z,31.73
2022-11-22T06:07:51.921Z,32.72
2022-11-22T06:10:45.196Z,32.90
2022-11-22T06:14:01.506Z,30.58
2022-11-22T06:16:52.010Z,31.95
2022-11-22T06:19:27.142Z,32.10
2022-11-22T06:22:08.924Z,32.38
2022-11-22T06:24:57.424Z,31.75
2022-11-22T06:27:41.247Z,31.10
2022-11-22T06:30:19.570Z,30.23
2022-11-22T06:33:09.002Z,31.63
2022-11-22T06:35:54.493Z,30.63
2022-11-22T06:38:35.629Z,31.42
2022-11-22T06:41:16.971Z,32.80
2022-11-22T06:44:04.398Z,33.70
2022-11-22T06:46:56.917Z,36.55
2022-11-22T06:49:38.456Z,33.05
2022-11-22T06:52:22.940Z,34.35
2022-11-22T06:55:07.984Z,35.63
2022-11-22T06:57:46.870Z,32.13
2022-11-22T07:00:35.440Z,36.35
2022-11-22T07:03:17.027Z,37.33
2022-11-22T07:06:01.713Z,33.53
2022-11-22T07:08:43.440Z,31.20
2022-11-22T07:14:08.316Z,29.05
2022-11-22T07:16:48.907Z,30.50
2022-11-22T07:19:34.745Z,32.05
2022-11-22T07:22:09.374Z,32.20
2022-11-22T07:24:53.205Z,31.27
2022-11-22T07:30:20.827Z,28.52
2022-11-22T07:32:52.890Z,32.42
2022-11-22T07:35:39.678Z,30.83
2022-11-22T07:38:29.200Z,30.27
2022-11-22T07:41:18.152Z,28.40
2022-11-22T07:44:08.884Z,30.77
2022-11-22T07:46:50.897Z,26.67
2022-11-22T07:49:39.889Z,29.13
2022-11-22T07:52:19.820Z,28.25
2022-11-22T07:54:53.910Z,26.23
2022-11-22T07:57:34.933Z,27.80
2022-11-22T08:00:18.394Z,27.40
2022-11-22T08:03:03.947Z,30.35
2022-11-22T08:05:44.708Z,28.33
2022-11-22T08:08:31.074Z,29.63
2022-11-22T08:11:14.252Z,28.45
2022-11-22T08:14:00.880Z,28.65
2022-11-22T08:16:36.056Z,32.30
2022-11-22T08:19:18.124Z,31.63
2022-11-22T08:22:02.021Z,29.70
2022-11-22T08:24:53.870Z,27.83
2022-11-22T08:27:38.072Z,27.52
2022-11-22T08:30:21.835Z,28.58
2022-11-22T08:32:59.892Z,28.65
2022-11-22T08:35:46.894Z,27.95
2022-11-22T08:38:36.272Z,28.27
2022-11-22T08:43:56.674Z,26.42
2022-11-22T08:46:43.856Z,28.73
2022-11-22T08:49:28.316Z,26.50
2022-11-22T08:52:18.277Z,26.73
2022-11-22T08:55:04.182Z,26.30
2022-11-22T08:57:44.176Z,25.55
2022-11-22T09:00:33.225Z,27.33
2022-11-22T09:03:17.020Z,26.38
2022-11-22T09:09:39.990Z,26.92
2022-11-22T09:12:30.865Z,29.20
2022-11-22T09:15:18.870Z,31.65
2022-11-22T09:18:04.127Z,30.83
2022-11-22T09:20:41.916Z,31.48
2022-11-22T09:23:22.129Z,32.80
2022-11-22T09:26:22.480Z,31.25
2022-11-22T09:29:25.276Z,32.17
2022-11-22T09:32:29.347Z,29.52
2022-11-22T09:35:20.840Z,30.00
2022-11-22T09:38:11.252Z,30.10
2022-11-22T09:41:02.423Z,24.90
2022-11-22T09:44:10.575Z,32.03
2022-11-22T09:47:01.716Z,30.02
2022-11-22T09:50:16.679Z,31.15
2022-11-22T09:53:05.968Z,31.92
2022-11-22T09:55:59.694Z,33.55
2022-11-22T09:58:39.875Z,31.42
2022-11-22T10:01:39.405Z,29.33
2022-11-22T10:04:19.693Z,31.63
2022-11-22T10:07:29.643Z,32.38
2022-11-22T10:10:19.027Z,32.58
2022-11-22T10:13:46.260Z,31.25
2022-11-22T10:16:34.020Z,33.63
2022-11-22T10:19:23.810Z,33.45
2022-11-22T10:22:05.175Z,26.35
2022-11-22T10:25:04.848Z,31.60
2022-11-22T10:27:47.893Z,33.15
2022-11-22T10:30:30.791Z,32.78
2022-11-22T10:33:46.530Z,33.85
2022-11-22T10:36:40.592Z,32.00
2022-11-22T10:39:34.716Z,32.75
2022-11-22T10:42:42.819Z,33.45
2022-11-22T10:45:36.355Z,34.58
2022-11-22T10:48:23.998Z,32.97
2022-11-22T10:51:08.192Z,33.10
2022-11-22T10:54:03.695Z,32.33
2022-11-22T10:57:41.042Z,32.67
2022-11-22T11:00:30.909Z,31.88
2022-11-22T11:03:30.869Z,35.25
2022-11-22T11:06:57.085Z,33.22
2022-11-22T11:13:05.768Z,33.33
2022-11-22T11:16:02.730Z,32.90
2022-11-22T11:18:57.613Z,34.03
2022-11-22T11:21:43.969Z,31.92
2022-11-22T11:24:45.443Z,33.95
2022-11-22T11:27:28.447Z,34.05
2022-11-22T11:30:14.002Z,35.23
2022-11-22T11:33:23.861Z,31.80
2022-11-22T11:36:18.879Z,36.00
2022-11-22T11:39:11.183Z,35.72
2022-11-22T11:42:04.649Z,35.65
2022-11-22T11:44:49.246Z,36.28
2022-11-22T11:47:50.631Z,36.80
2022-11-22T11:50:40.204Z,40.60
2022-11-22T11:53:35.934Z,38.25
2022-11-22T11:57:03.760Z,29.07
2022-11-22T11:59:53.187Z,34.42
2022-11-22T12:02:34.095Z,37.30
2022-11-22T12:05:24.389Z,36.47
2022-11-22T12:08:44.644Z,34.40
2022-11-22T12:12:03.574Z,36.67
2022-11-22T12:15:10.808Z,36.20
2022-11-22T12:18:11.661Z,33.22
2022-11-22T12:21:09.692Z,31.63
2022-11-22T12:27:37.037Z,33.92
2022-11-22T12:30:23.931Z,32.58
2022-11-22T12:33:13.573Z,30.25
2022-11-22T12:35:59.265Z,33.28
2022-11-22T12:38:43.762Z,32.28
2022-11-22T12:41:34.507Z,29.90
2022-11-22T12:44:25.843Z,30.65
2022-11-22T12:47:13.319Z,32.40
2022-11-22T12:48:32.658Z,35.13
2022-11-22T12:50:03.419Z,29.50
2022-11-22T12:52:50.334Z,27.77
2022-11-22T12:55:45.853Z,27.70
2022-11-22T12:58:41.486Z,29.48
2022-11-22T13:01:57.031Z,27.58
2022-11-22T13:04:55.017Z,27.35
2022-11-22T13:07:45.947Z,27.30
2022-11-22T13:11:01.759Z,27.87
2022-11-22T13:13:47.070Z,27.45
2022-11-22T13:16:27.755Z,26.38
2022-11-22T13:19:18.900Z,25.90
2022-11-22T13:22:35.569Z,26.17
2022-11-22T13:25:44.811Z,23.80
2022-11-22T13:28:32.954Z,25.75
2022-11-22T13:31:21.625Z,25.15
2022-11-22T13:34:24.556Z,23.73
2022-11-22T13:37:18.043Z,22.45
2022-11-22T13:40:20.434Z,24.30
2022-11-22T13:43:36.447Z,21.45
2022-11-22T13:46:47.858Z,23.55
2022-11-22T13:49:49.392Z,21.98
2022-11-22T13:52:58.866Z,21.40
2022-11-22T13:55:42.272Z,21.10
2022-11-22T13:58:59.292Z,22.27
2022-11-22T14:02:02.917Z,22.88
2022-11-22T14:04:51.738Z,21.02
2022-11-22T14:08:03.298Z,21.67
2022-11-22T14:11:12.682Z,20.15
2022-11-22T14:14:00.748Z,21.70
2022-11-22T14:17:06.390Z,21.42
2022-11-22T14:20:09.281Z,21.10
2022-11-22T14:23:00.789Z,21.17
2022-11-22T14:26:04.365Z,21.15
2022-11-22T14:29:00.308Z,21.63
2022-11-22T14:31:42.236Z,19.80
2022-11-22T14:34:58.770Z,20.75
2022-11-22T14:38:02.649Z,22.02
2022-11-22T14:40:44.282Z,21.70
2022-11-22T14:43:37.416Z,20.08
2022-11-22T14:46:52.400Z,21.67
2022-11-22T14:49:47.874Z,19.85
2022-11-22T14:52:36.857Z,21.00
2022-11-22T14:55:26.861Z,20.20
2022-11-22T14:58:09.016Z,19.30
2022-11-22T15:01:22.905Z,19.45
2022-11-22T15:09:13.964Z,21.15
2022-11-22T15:09:15.084Z,21.35
2022-11-22T15:11:41.840Z,20.83
2022-11-22T15:14:54.131Z,22.43
2022-11-22T15:57:32.055Z,25.25
2022-11-22T16:00:35.201Z,29.77
2022-11-22T16:03:44.308Z,38.97
2022-11-22T16:06:37.723Z,32.65
2022-11-22T16:09:30.852Z,39.05
2022-11-22T16:12:29.539Z,21.55
2022-11-22T16:15:28.640Z,19.23
2022-11-22T16:18:22.682Z,18.10
2022-11-22T16:24:23.798Z,18.90
2022-11-22T16:27:19.316Z,19.30
2022-11-22T16:30:04.638Z,18.33
2022-11-22T16:32:52.587Z,17.55
2022-11-22T16:35:34.899Z,20.17
2022-11-22T16:38:28.039Z,20.35
2022-11-22T16:41:17.428Z,19.45
2022-11-22T16:44:07.463Z,17.45
2022-11-22T16:46:54.791Z,18.90
2022-11-22T16:49:33.990Z,21.08
2022-11-22T16:52:22.102Z,19.65
2022-11-22T16:55:09.329Z,18.13
2022-11-22T16:57:50.615Z,18.88
2022-11-22T17:00:46.311Z,18.73
2022-11-22T17:03:36.462Z,18.05
2022-11-22T17:06:32.437Z,18.85
2022-11-22T17:09:30.025Z,17.15
2022-11-22T17:12:14.534Z,18.50
2022-11-22T17:15:06.168Z,20.65
2022-11-22T17:17:53.677Z,19.45
2022-11-22T17:20:34.695Z,16.55
2022-11-22T17:23:26.134Z,21.13
2022-11-22T17:26:09.053Z,18.40
2022-11-22T17:28:58.745Z,18.17
2022-11-22T17:31:38.947Z,17.27
2022-11-22T17:34:12.092Z,17.42
2022-11-22T17:37:03.391Z,16.55
2022-11-22T17:39:47.103Z,17.60
2022-11-22T17:45:09.046Z,16.08
2022-11-22T17:48:04.958Z,16.02
2022-11-22T17:50:51.655Z,16.63
2022-11-22T17:53:46.779Z,15.02
2022-11-22T17:56:29.037Z,16.77
2022-11-22T17:59:01.567Z,15.45
2022-11-22T18:04:27.043Z,16.17
2022-11-22T18:07:07.170Z,16.55
2022-11-22T18:09:48.801Z,16.55
2022-11-22T18:12:26.093Z,16.10
2022-11-22T18:15:14.310Z,14.30
2022-11-22T18:17:49.068Z,14.63
2022-11-22T18:20:32.680Z,15.40
2022-11-22T18:23:15.232Z,15.63
2022-11-22T18:26:17.068Z,19.80
2022-11-22T18:32:10.323Z,17.95
2022-11-22T18:34:44.503Z,23.58
2022-11-22T18:37:20.292Z,23.85
2022-11-22T18:40:01.235Z,20.63
2022-11-22T18:42:39.793Z,22.90
2022-11-22T18:45:21.134Z,19.35
2022-11-22T18:48:06.779Z,17.77
2022-11-22T18:50:45.804Z,15.25
2022-11-22T18:53:37.432Z,15.23
2022-11-22T18:56:14.473Z,16.50
2022-11-22T18:58:48.886Z,16.60
2022-11-22T19:01:29.872Z,15.82
2022-11-22T19:04:07.361Z,15.90
2022-11-22T19:06:51.153Z,16.42
2022-11-22T19:09:28.628Z,16.38
2022-11-22T19:12:14.929Z,16.63
2022-11-22T19:14:59.984Z,15.93
2022-11-22T19:17:43.769Z,15.38
2022-11-22T19:20:54.224Z,16.70
2022-11-22T19:23:41.376Z,17.13
2022-11-22T19:26:20.700Z,18.40
2022-11-22T19:29:02.838Z,16.85
2022-11-22T19:31:42.819Z,16.67
2022-11-22T19:34:21.081Z,16.13
2022-11-22T19:37:08.097Z,17.95
2022-11-22T19:39:45.411Z,18.27
2022-11-22T19:42:36.304Z,16.05
2022-11-22T19:45:13.969Z,16.95
2022-11-22T19:47:56.710Z,16.30
2022-11-22T19:50:48.826Z,16.88
2022-11-22T19:53:34.738Z,15.55
2022-11-22T19:56:22.279Z,16.20
2022-11-22T19:59:08.799Z,16.45
2022-11-22T20:01:49.516Z,16.48
2022-11-22T20:04:48.970Z,16.70
2022-11-22T20:07:35.541Z,16.95
2022-11-22T20:10:13.357Z,16.45
2022-11-22T20:13:10.350Z,15.40
2022-11-22T20:15:55.068Z,15.77
2022-11-22T20:18:33.228Z,15.73
2022-11-22T20:21:09.400Z,16.70
2022-11-22T20:23:58.818Z,15.25
2022-11-22T20:26:45.046Z,15.35
2022-11-22T20:29:23.202Z,16.85
2022-11-22T20:32:01.268Z,15.32
2022-11-22T20:34:39.268Z,16.63
2022-11-22T20:37:17.135Z,16.85
2022-11-22T20:40:00.586Z,15.73
2022-11-22T20:42:55.429Z,16.95
2022-11-22T20:45:49.283Z,15.05
2022-11-22T20:48:33.196Z,17.05
2022-11-22T20:53:53.920Z,16.13
2022-11-22T20:56:45.582Z,14.88
2022-11-22T20:59:31.533Z,17.90
2022-11-22T21:02:16.296Z,15.40
2022-11-22T21:05:07.067Z,15.80
2022-11-22T21:07:50.779Z,20.08
2022-11-22T21:10:31.366Z,18.00
2022-11-22T21:13:15.564Z,17.42
2022-11-22T21:16:21.176Z,18.27
2022-11-22T21:19:17.925Z,19.45
2022-11-22T21:21:58.675Z,18.98
2022-11-22T21:24:51.001Z,17.65
2022-11-22T21:27:36.170Z,17.52
2022-11-22T21:30:11.993Z,16.95
2022-11-22T21:32:54.884Z,17.30
2022-11-22T21:35:31.070Z,16.90
2022-11-22T21:38:14.649Z,17.98
2022-11-22T21:41:38.264Z,18.42
2022-11-22T21:44:20.520Z,16.90
2022-11-22T21:47:02.192Z,17.42
2022-11-22T21:49:47.545Z,18.25
2022-11-22T21:52:28.762Z,18.23
2022-11-22T21:55:00.820Z,17.80
2022-11-22T21:57:36.454Z,19.02
2022-11-22T22:00:18.158Z,18.33
2022-11-22T22:02:51.788Z,18.98
2022-11-22T22:08:19.361Z,18.25
2022-11-22T22:10:59.024Z,19.70
2022-11-22T22:13:51.065Z,19.35
2022-11-22T22:16:36.932Z,18.73
2022-11-22T22:19:25.929Z,18.85
2022-11-22T22:22:01.022Z,20.20
2022-11-22T22:24:43.767Z,19.92
2022-11-22T22:27:28.797Z,19.15
2022-11-22T22:30:08.186Z,19.13
2022-11-22T22:32:57.630Z,19.70
2022-11-22T22:35:37.531Z,19.88
2022-11-22T22:38:15.196Z,20.23
2022-11-22T22:40:57.870Z,19.30
2022-11-22T22:43:46.197Z,19.23
2022-11-22T22:46:27.535Z,19.45
2022-11-22T22:49:05.171Z,20.73
2022-11-22T22:51:43.269Z,19.70
2022-11-22T22:54:32.236Z,19.85
2022-11-22T22:57:15.879Z,18.13
2022-11-22T23:00:02.396Z,19.05
2022-11-22T23:02:49.785Z,21.52
2022-11-22T23:05:47.099Z,20.08
2022-11-22T23:08:30.986Z,18.88
2022-11-22T23:11:13.015Z,19.58
2022-11-22T23:14:02.384Z,20.48
2022-11-22T23:16:41.799Z,19.45
2022-11-22T23:19:26.145Z,23.85
2022-11-22T23:22:13.271Z,22.05
2022-11-22T23:24:59.427Z,20.55
2022-11-22T23:27:42.675Z,21.35
2022-11-22T23:33:08.809Z,20.02
2022-11-22T23:36:01.251Z,22.05
2022-11-22T23:38:35.964Z,21.27
2022-11-22T23:41:31.030Z,20.02
2022-11-22T23:44:11.390Z,20.85
2022-11-22T23:47:03.084Z,21.13
2022-11-22T23:49:49.285Z,22.77
2022-11-22T23:52:32.816Z,21.30
2022-11-22T23:55:18.266Z,21.00
2022-11-22T23:58:07.796Z,21.70
